Portada
METAR-TAF:

METAR-TAF

Aeroports :

Al-Kuwait, Kuwait

latitud: 29-13N, longitud: 047-59E, altitud: 55 m

Observació

L'informe es va fer fa 33 minuts, a les 07:00 UTC
Vent 4 kt del Oest/Nord-Oest
Temperatura 18°C
Humitat 59%
Pressió 1020 hPa
Visibilitat: 8000 m

METAR: OKBK 140700Z 30004KT 8000 NSC 18/10 Q1020 NOSIG

Hora: 10:33 (07:33 UTC)

Pronòstic

L'informe es va fer fa 2 hores i 48 minuts, a les 04:45 UTC
Pronòstic vàlid del 14 a les 06 UTC al 15 a les 12 UTC
Vent 3 kt amb direcció variable
Visibilitat: 7000 m

TAF: OKBK 140445Z 1406/1512 VRB03KT 7000 NSC

Observacions i pronòstics meteorològics de més de 4000 aeroports (METAR i TAF).

Les estacions disponibles són els punts grocs i vermells al mapa.

Posi el ratolí al punt desitjat per veure el nom de l'estació.

Feu clic per veure les observacions i els pronòstics meteorològics.

Per canviar el mapa: feu clic els botons verds amb una creu de color negre per apropar; al botó verd amb un guió per allunyar la imatge; o en les fletxes verdes per a mapes adjacents.


METAR-TAF: